Time;durP1;ratioP1;P1;durP2;ratioP2;P2;SDS_P1;SDS_P2;PMS_P1;PMS_P2;Temp;Humidity;BMP_temperature;BMP_pressure;BME280_temperature;BME280_humidity;BME280_pressure;Samples;Min_cycle;Max_cycle;Signal;HPM_P1;HPM_P2
2024/02/16 00:00:12;;;;;;;0.60;0.60;;;;;;;8.54;58.07;97472.84;4983947;28;20145;-58
2024/02/16 00:02:40;;;;;;;0.70;0.70;;;;;;;8.56;57.98;97470.53;4985809;28;20080;-68
2024/02/16 00:05:07;;;;;;;0.70;0.70;;;;;;;8.67;58.14;97476.38;4985693;28;21011;-57
2024/02/16 00:07:34;;;;;;;0.70;0.70;;;;;;;8.65;57.80;97462.94;4985432;28;20156;-58
2024/02/16 00:10:01;;;;;;;0.70;0.70;;;;;;;8.29;57.63;97420.75;4983708;28;20061;-66
2024/02/16 00:12:28;;;;;;;0.68;0.68;;;;;;;8.78;58.28;97469.22;4985540;28;20157;-67
2024/02/16 00:14:55;;;;;;;0.70;0.70;;;;;;;8.60;57.93;97465.94;4985011;28;20125;-67
2024/02/16 00:17:22;;;;;;;0.63;0.63;;;;;;;8.61;57.38;97472.25;4983433;28;20157;-67
2024/02/16 00:19:48;;;;;;;0.70;0.70;;;;;;;7.99;58.20;97389.00;4985641;28;20433;-57
2024/02/16 00:22:15;;;;;;;0.80;0.80;;;;;;;8.51;57.44;97461.69;4983941;28;20046;-58
2024/02/16 00:24:42;;;;;;;0.70;0.70;;;;;;;8.27;57.71;97456.97;4985128;28;20101;-67
2024/02/16 00:27:09;;;;;;;0.60;0.60;;;;;;;7.55;57.68;97377.75;4985175;28;20529;-68
2024/02/16 00:29:38;;;;;;;0.60;0.60;;;;;;;8.14;58.31;97484.91;4983493;28;20084;-67
2024/02/16 00:32:07;;;;;;;0.60;0.60;;;;;;;7.79;58.72;97478.16;4985506;28;20050;-58
2024/02/16 00:34:37;;;;;;;0.60;0.60;;;;;;;7.86;58.75;97492.19;4983616;28;20057;-67
2024/02/16 00:37:09;;;;;;;0.60;0.60;;;;;;;7.70;59.93;97487.34;4984849;28;20058;-60
2024/02/16 00:39:36;;;;;;;0.60;0.60;;;;;;;7.55;60.16;97463.19;4983555;28;20429;-67
2024/02/16 00:42:03;;;;;;;0.60;0.60;;;;;;;7.42;60.03;97474.50;4985104;28;20104;-67
2024/02/16 00:44:30;;;;;;;0.60;0.60;;;;;;;7.67;60.40;97481.69;4983155;28;20056;-67
2024/02/16 00:46:57;;;;;;;0.70;0.70;;;;;;;7.81;59.93;97492.44;4984916;28;20426;-65
2024/02/16 00:49:24;;;;;;;0.60;0.60;;;;;;;7.56;61.20;97492.34;4984865;28;20058;-68
2024/02/16 00:51:51;;;;;;;0.60;0.60;;;;;;;7.35;60.89;97430.97;4983707;28;20402;-58
2024/02/16 00:54:18;;;;;;;0.60;0.60;;;;;;;7.77;60.04;97491.47;4983199;28;20043;-59
2024/02/16 00:56:44;;;;;;;0.60;0.60;;;;;;;7.69;60.83;97488.50;4985022;28;20255;-69
2024/02/16 00:59:11;;;;;;;0.60;0.60;;;;;;;7.27;60.89;97418.06;4984825;28;20058;-68
2024/02/16 01:01:38;;;;;;;0.60;0.60;;;;;;;7.72;60.57;97479.53;4984778;28;20102;-68
2024/02/16 01:04:06;;;;;;;0.60;0.60;;;;;;;7.62;60.20;97457.91;4984338;28;20054;-60
2024/02/16 01:06:34;;;;;;;0.60;0.60;;;;;;;8.07;60.22;97479.13;4984134;28;20061;-58
2024/02/16 01:09:01;;;;;;;0.60;0.60;;;;;;;7.60;60.36;97427.13;4984400;28;20414;-58
2024/02/16 01:11:28;;;;;;;0.70;0.70;;;;;;;7.41;60.56;97412.28;4983546;28;20049;-68
2024/02/16 01:13:55;;;;;;;0.70;0.70;;;;;;;8.05;60.61;97481.41;4983531;28;20050;-68
2024/02/16 01:16:22;;;;;;;0.60;0.60;;;;;;;7.46;60.06;97410.09;4984380;28;20058;-58
2024/02/16 01:18:49;;;;;;;0.70;0.70;;;;;;;7.73;60.16;97420.47;4983836;28;20058;-67
2024/02/16 01:21:16;;;;;;;0.70;0.70;;;;;;;8.27;59.64;97478.25;4984059;28;20133;-59
2024/02/16 01:23:44;;;;;;;0.60;0.60;;;;;;;8.31;59.70;97473.66;4983146;28;20050;-59
2024/02/16 01:26:11;;;;;;;0.70;0.70;;;;;;;8.14;58.64;97484.91;4984339;28;20537;-69
2024/02/16 01:28:38;;;;;;;0.60;0.60;;;;;;;8.16;58.36;97474.28;4983888;28;20050;-60
2024/02/16 01:31:04;;;;;;;0.70;0.70;;;;;;;8.10;58.32;97453.59;4984079;28;20086;-58
2024/02/16 01:33:34;;;;;;;0.70;0.70;;;;;;;7.75;59.41;97417.38;4983951;28;20051;-59
2024/02/16 01:36:03;;;;;;;0.70;0.70;;;;;;;7.98;59.32;97472.91;4982623;28;20062;-59
2024/02/16 01:38:29;;;;;;;0.60;0.60;;;;;;;7.99;59.75;97471.75;4983919;28;20084;-58
2024/02/16 01:40:56;;;;;;;0.60;0.60;;;;;;;7.73;60.35;97445.28;4982412;28;20073;-60
2024/02/16 01:43:23;;;;;;;0.50;0.50;;;;;;;7.93;60.03;97475.91;4984207;28;20055;-69
2024/02/16 01:45:50;;;;;;;0.60;0.60;;;;;;;8.00;59.95;97470.63;4984228;28;20042;-69
2024/02/16 01:48:17;;;;;;;0.60;0.60;;;;;;;7.87;60.64;97480.03;4973003;28;20067;-68
2024/02/16 01:50:45;;;;;;;0.60;0.60;;;;;;;7.57;60.55;97469.16;4964106;28;20138;-69
2024/02/16 01:53:12;;;;;;;0.70;0.70;;;;;;;7.70;61.05;97470.78;4964216;28;20055;-58
2024/02/16 01:55:39;;;;;;;0.60;0.60;;;;;;;7.49;61.52;97474.78;4982190;28;20050;-61
2024/02/16 01:58:07;;;;;;;0.57;0.57;;;;;;;7.36;62.88;97471.16;4983489;28;20400;-69
2024/02/16 02:00:33;;;;;;;0.60;0.60;;;;;;;7.23;63.61;97469.50;4971719;28;20062;-68
2024/02/16 02:03:00;;;;;;;0.52;0.52;;;;;;;7.19;64.43;97465.00;4977278;28;20054;-68
2024/02/16 02:05:27;;;;;;;0.60;0.60;;;;;;;7.27;64.55;97467.66;4983393;28;20595;-59
2024/02/16 02:07:54;;;;;;;0.60;0.60;;;;;;;7.30;63.85;97463.44;4981803;28;20580;-68
2024/02/16 02:10:22;;;;;;;0.50;0.50;;;;;;;7.10;64.70;97467.03;4981719;28;20058;-69
2024/02/16 02:12:48;;;;;;;0.50;0.50;;;;;;;6.99;65.23;97455.63;4983952;28;20080;-68
2024/02/16 02:15:15;;;;;;;0.60;0.60;;;;;;;7.14;64.02;97468.78;4983710;28;20398;-69
2024/02/16 02:17:42;;;;;;;0.50;0.50;;;;;;;6.50;63.89;97360.16;4983909;28;20125;-67
2024/02/16 02:20:10;;;;;;;0.50;0.50;;;;;;;6.44;63.08;97383.53;4983269;28;20054;-68
2024/02/16 02:22:38;;;;;;;0.60;0.60;;;;;;;6.55;63.86;97428.75;4983292;28;20058;-58
2024/02/16 02:25:05;;;;;;;0.52;0.52;;;;;;;6.68;65.60;97455.22;4983244;28;20046;-59
2024/02/16 02:27:33;;;;;;;0.50;0.50;;;;;;;6.57;65.23;97522.81;4981702;28;20062;-59
2024/02/16 02:29:59;;;;;;;0.60;0.60;;;;;;;6.13;66.42;97449.09;4983284;28;20560;-59
2024/02/16 02:32:26;;;;;;;0.50;0.50;;;;;;;5.77;66.62;97375.34;4983321;28;20050;-58
2024/02/16 02:34:53;;;;;;;0.50;0.50;;;;;;;6.18;66.48;97457.16;4982694;28;20065;-68
2024/02/16 02:37:20;;;;;;;0.50;0.50;;;;;;;6.00;67.97;97450.13;4982684;28;20054;-68
2024/02/16 02:39:47;;;;;;;0.50;0.50;;;;;;;5.95;68.34;97461.31;4982899;28;20105;-69
2024/02/16 02:42:14;;;;;;;0.50;0.50;;;;;;;5.71;69.51;97453.63;4981704;28;20508;-58
2024/02/16 02:44:44;;;;;;;0.50;0.50;;;;;;;5.61;70.13;97464.19;4982724;28;20484;-58
2024/02/16 02:47:10;;;;;;;0.40;0.40;;;;;;;5.53;70.27;97473.25;4981247;28;20058;-68
2024/02/16 02:49:37;;;;;;;0.50;0.50;;;;;;;5.51;71.25;97470.00;4983283;28;20548;-59
2024/02/16 02:52:06;;;;;;;0.45;0.45;;;;;;;5.40;71.41;97491.53;4983541;28;20137;-69
2024/02/16 02:54:33;;;;;;;0.43;0.43;;;;;;;2.37;72.25;96993.81;4982720;28;20068;-68
2024/02/16 02:57:02;;;;;;;0.50;0.50;;;;;;;5.47;72.05;97475.34;4981173;28;20065;-59
2024/02/16 02:59:29;;;;;;;0.50;0.50;;;;;;;5.51;71.90;97481.81;4982852;28;20046;-58
2024/02/16 03:01:55;;;;;;;0.40;0.40;;;;;;;5.39;71.03;97461.66;4970665;28;20540;-59
2024/02/16 03:04:22;;;;;;;0.50;0.50;;;;;;;5.52;72.32;97463.38;4967330;28;20067;-67
2024/02/16 03:06:52;;;;;;;0.40;0.40;;;;;;;4.88;71.99;97351.94;4967191;28;20109;-69
2024/02/16 03:09:19;;;;;;;0.50;0.50;;;;;;;5.58;72.14;97475.81;4965432;28;20081;-69
2024/02/16 03:11:46;;;;;;;0.50;0.50;;;;;;;5.72;71.80;97481.91;4967087;28;20512;-59
2024/02/16 03:14:13;;;;;;;0.50;0.50;;;;;;;5.83;71.66;97467.50;4967000;28;20051;-59
2024/02/16 03:16:40;;;;;;;0.50;0.50;;;;;;;5.96;71.06;97465.66;4966766;28;20050;-59
2024/02/16 03:19:09;;;;;;;0.50;0.50;;;;;;;5.99;70.30;97448.53;4966996;28;20529;-61
2024/02/16 03:21:36;;;;;;;0.50;0.50;;;;;;;6.13;69.61;97476.63;4966964;28;20407;-58
2024/02/16 03:24:06;;;;;;;0.50;0.50;;;;;;;6.33;69.49;97481.34;4967607;28;20134;-68
2024/02/16 03:26:34;;;;;;;0.60;0.60;;;;;;;6.41;69.27;97477.75;4967402;28;20074;-68
2024/02/16 03:29:00;;;;;;;0.50;0.50;;;;;;;6.35;69.48;97468.06;4952982;28;20057;-69
2024/02/16 03:31:28;;;;;;;0.50;0.50;;;;;;;5.95;69.10;97398.09;4947059;28;20438;-59
2024/02/16 03:33:55;;;;;;;0.50;0.50;;;;;;;6.67;68.88;97475.63;4946003;29;20086;-58
2024/02/16 03:36:23;;;;;;;0.60;0.60;;;;;;;6.77;67.79;97469.72;4946076;29;20047;-69
2024/02/16 03:38:50;;;;;;;0.50;0.50;;;;;;;6.16;67.51;97393.44;4945864;29;20062;-59
2024/02/16 03:41:21;;;;;;;0.60;0.60;;;;;;;6.35;67.41;97435.06;4947233;28;20051;-68
2024/02/16 03:43:48;;;;;;;0.60;0.60;;;;;;;6.69;68.11;97476.09;4947449;28;20074;-67
2024/02/16 03:46:15;;;;;;;0.57;0.57;;;;;;;6.53;68.20;97502.59;4947353;28;20047;-59
2024/02/16 03:48:42;;;;;;;0.50;0.50;;;;;;;6.45;68.35;97475.94;4947097;29;20062;-59
2024/02/16 03:51:09;;;;;;;0.60;0.60;;;;;;;6.26;69.67;97481.06;4947559;29;20491;-59
2024/02/16 03:53:36;;;;;;;0.50;0.50;;;;;;;5.72;71.08;97432.44;4947205;29;20518;-67
2024/02/16 03:56:03;;;;;;;0.47;0.47;;;;;;;5.42;71.62;97417.03;4947075;28;20058;-58
2024/02/16 03:58:31;;;;;;;0.47;0.47;;;;;;;5.86;72.20;97485.28;4946191;29;20055;-68
2024/02/16 04:00:58;;;;;;;0.50;0.50;;;;;;;5.52;71.30;97433.16;4945260;29;20063;-68
2024/02/16 04:03:25;;;;;;;0.50;0.50;;;;;;;5.75;72.23;97482.03;4947060;29;20147;-68
2024/02/16 04:05:52;;;;;;;0.50;0.50;;;;;;;5.91;72.02;97496.13;4947395;28;20047;-59
2024/02/16 04:08:20;;;;;;;0.45;0.45;;;;;;;5.87;71.41;97484.16;4947560;29;20055;-59
2024/02/16 04:10:46;;;;;;;0.50;0.50;;;;;;;5.95;71.19;97488.81;4947607;28;20051;-58
2024/02/16 04:13:13;;;;;;;0.50;0.50;;;;;;;5.81;71.55;97463.44;4947429;29;20059;-58
2024/02/16 04:15:40;;;;;;;0.50;0.50;;;;;;;5.99;71.40;97473.28;4947433;29;20424;-58
2024/02/16 04:18:07;;;;;;;0.50;0.50;;;;;;;5.58;70.99;97416.16;4946914;28;20106;-59
2024/02/16 04:20:34;;;;;;;0.50;0.50;;;;;;;5.76;70.50;97438.88;4946812;28;20147;-68
2024/02/16 04:23:01;;;;;;;0.50;0.50;;;;;;;6.31;69.83;97489.13;4945627;29;20078;-61
2024/02/16 04:25:28;;;;;;;0.50;0.50;;;;;;;6.40;68.50;97503.66;4944974;29;20059;-59
2024/02/16 04:27:54;;;;;;;0.50;0.50;;;;;;;6.22;69.32;97491.13;4946331;29;20078;-59
2024/02/16 04:30:21;;;;;;;0.50;0.50;;;;;;;5.75;68.93;97398.81;4946322;28;20062;-62
2024/02/16 04:32:48;;;;;;;0.50;0.50;;;;;;;6.20;69.10;97498.88;4946383;29;20529;-59
2024/02/16 04:35:16;;;;;;;0.52;0.52;;;;;;;5.97;70.19;97461.81;4946231;29;20061;-61
2024/02/16 04:37:44;;;;;;;0.60;0.60;;;;;;;6.50;68.93;97508.75;4946511;28;20082;-59
2024/02/16 04:40:14;;;;;;;0.55;0.55;;;;;;;6.53;69.55;97502.59;4946555;28;20047;-59
2024/02/16 04:42:40;;;;;;;0.60;0.60;;;;;;;6.52;69.27;97506.50;4944601;29;20055;-59
2024/02/16 04:45:11;;;;;;;0.50;0.50;;;;;;;6.59;69.40;97506.75;4946146;29;20062;-68
2024/02/16 04:47:38;;;;;;;0.50;0.50;;;;;;;6.14;68.72;97453.47;4946426;28;20055;-59
2024/02/16 04:50:09;;;;;;;0.50;0.50;;;;;;;6.60;68.96;97516.66;4945784;28;20047;-69
2024/02/16 04:52:39;;;;;;;0.50;0.50;;;;;;;6.42;68.77;97490.34;4945099;29;20160;-61
2024/02/16 04:55:07;;;;;;;0.50;0.50;;;;;;;6.49;68.19;97484.34;4956673;28;20046;-60
2024/02/16 04:57:34;;;;;;;0.57;0.57;;;;;;;6.62;68.15;97508.88;4966855;28;20497;-69
2024/02/16 05:00:02;;;;;;;0.55;0.55;;;;;;;6.08;68.08;97496.03;4965776;28;20051;-61
2024/02/16 05:02:29;;;;;;;0.50;0.50;;;;;;;6.30;67.71;97464.69;4965927;28;20089;-68
2024/02/16 05:04:56;;;;;;;0.60;0.60;;;;;;;6.86;67.43;97517.25;4965266;28;20050;-59
2024/02/16 05:07:26;;;;;;;0.60;0.60;;;;;;;6.85;68.49;97521.16;4963958;28;20110;-59
2024/02/16 05:09:57;;;;;;;0.60;0.60;;;;;;;6.96;67.67;97514.13;4965045;28;20053;-59
2024/02/16 05:12:26;;;;;;;0.60;0.60;;;;;;;7.04;68.10;97521.50;4965339;28;20054;-59
2024/02/16 05:14:53;;;;;;;0.60;0.60;;;;;;;6.61;67.76;97471.47;4965084;28;20055;-69
2024/02/16 05:17:22;;;;;;;0.70;0.70;;;;;;;6.99;67.46;97507.13;4965057;28;20057;-59
2024/02/16 05:19:49;;;;;;;0.60;0.60;;;;;;;7.18;67.58;97524.81;4965178;28;20078;-59
2024/02/16 05:22:18;;;;;;;0.60;0.60;;;;;;;7.27;67.15;97522.78;4965478;28;20110;-67
2024/02/16 05:24:45;;;;;;;0.60;0.60;;;;;;;7.40;66.02;97527.22;4964308;28;20057;-69
2024/02/16 05:27:12;;;;;;;0.60;0.60;;;;;;;6.97;66.44;97474.41;4964723;28;20062;-58
2024/02/16 05:29:41;;;;;;;0.60;0.60;;;;;;;7.47;66.93;97527.47;4964849;28;20054;-68
2024/02/16 05:32:10;;;;;;;0.60;0.60;;;;;;;7.44;66.21;97533.66;4965022;28;20061;-68
2024/02/16 05:34:38;;;;;;;0.60;0.60;;;;;;;7.46;65.61;97541.59;4964892;28;20056;-59
2024/02/16 05:37:06;;;;;;;0.60;0.60;;;;;;;7.37;65.15;97516.84;4963177;28;20055;-59
2024/02/16 05:39:43;;;;;;;0.60;0.60;;;;;;;7.58;64.82;97542.44;4964206;28;20054;-59
2024/02/16 05:42:10;;;;;;;0.57;0.57;;;;;;;6.56;67.28;97468.91;4964424;28;20514;-62
2024/02/16 05:44:37;;;;;;;0.60;0.60;;;;;;;6.83;67.89;97500.63;4964697;28;20102;-69
2024/02/16 05:47:04;;;;;;;0.60;0.60;;;;;;;6.73;66.97;97495.50;4964462;28;20058;-69
2024/02/16 05:49:31;;;;;;;0.60;0.60;;;;;;;6.95;67.96;97542.81;4963991;28;20061;-67
2024/02/16 05:52:17;;;;;;;0.60;0.60;;;;;;;6.81;67.36;97520.22;4958437;28;20059;-73
2024/02/16 05:54:50;;;;;;;0.60;0.60;;;;;;;6.71;67.67;97528.88;4948207;28;20043;-60
2024/02/16 05:57:18;;;;;;;0.50;0.50;;;;;;;6.44;69.34;97532.09;4962636;28;20604;-61
2024/02/16 05:59:45;;;;;;;0.50;0.50;;;;;;;6.35;70.53;97560.81;4978211;28;20909;-59
2024/02/16 06:02:14;;;;;;;0.50;0.50;;;;;;;6.02;70.09;97475.38;4964021;28;20117;-72
2024/02/16 06:04:41;;;;;;;0.57;0.57;;;;;;;6.58;70.08;97560.19;4968034;28;20142;-71
2024/02/16 06:07:09;;;;;;;0.60;0.60;;;;;;;6.60;69.33;97541.41;4966166;28;20117;-73
2024/02/16 06:09:37;;;;;;;0.50;0.50;;;;;;;6.71;69.21;97564.66;4967109;28;20074;-69
2024/02/16 06:12:06;;;;;;;0.60;0.60;;;;;;;6.68;69.10;97565.34;4966146;28;20050;-61
2024/02/16 06:14:34;;;;;;;0.50;0.50;;;;;;;6.15;69.33;97477.06;4963948;28;20150;-74
2024/02/16 06:17:00;;;;;;;0.60;0.60;;;;;;;6.80;68.55;97570.91;4963859;28;20427;-59
2024/02/16 06:19:27;;;;;;;0.60;0.60;;;;;;;6.91;68.88;97563.88;4963640;28;20063;-74
2024/02/16 06:21:55;;;;;;;0.60;0.60;;;;;;;5.92;72.68;97585.69;4963308;28;20051;-59
2024/02/16 06:24:25;;;;;;;0.60;0.60;;;;;;;6.34;72.65;97582.00;4963737;28;20058;-74
2024/02/16 06:26:52;;;;;;;0.57;0.57;;;;;;;6.50;71.14;97558.28;4964670;28;20046;-72
2024/02/16 06:29:23;;;;;;;0.50;0.50;;;;;;;6.78;70.38;97575.94;4965562;28;20070;-71
2024/02/16 06:31:51;;;;;;;0.50;0.50;;;;;;;6.76;70.04;97574.69;4964660;28;20594;-74
2024/02/16 06:34:19;;;;;;;0.50;0.50;;;;;;;6.44;69.94;97532.09;4962728;28;20084;-59
2024/02/16 06:36:46;;;;;;;0.52;0.52;;;;;;;6.97;69.64;97579.06;4963696;28;20515;-74
2024/02/16 06:39:18;;;;;;;0.50;0.50;;;;;;;6.64;69.31;97503.81;4963720;28;20055;-59
2024/02/16 06:41:46;;;;;;;0.60;0.60;;;;;;;7.21;68.44;97557.19;4963928;28;20169;-75
2024/02/16 06:44:14;;;;;;;0.60;0.60;;;;;;;7.47;67.06;97566.06;4963455;28;20518;-74
2024/02/16 06:46:41;;;;;;;0.60;0.60;;;;;;;7.22;67.05;97536.75;4977782;28;20109;-62
2024/02/16 06:49:08;;;;;;;0.60;0.60;;;;;;;7.52;66.78;97574.09;4963259;28;20055;-75
2024/02/16 06:51:36;;;;;;;0.60;0.60;;;;;;;7.02;66.22;97460.44;4963277;28;20081;-67
2024/02/16 06:54:04;;;;;;;0.60;0.60;;;;;;;7.74;66.46;97570.97;4960685;28;20055;-65
2024/02/16 06:56:33;;;;;;;0.60;0.60;;;;;;;7.57;66.34;97554.59;4963013;28;20133;-68
2024/02/16 06:59:00;;;;;;;0.60;0.60;;;;;;;7.83;66.08;97589.41;4962804;28;20047;-67
2024/02/16 07:01:27;;;;;;;0.60;0.60;;;;;;;7.94;66.86;97576.78;4962131;28;20050;-64
2024/02/16 07:03:57;;;;;;;0.60;0.60;;;;;;;8.35;65.64;97546.31;4964913;28;20050;-77
2024/02/16 07:06:26;;;;;;;0.70;0.70;;;;;;;7.95;62.94;97485.41;4963563;28;20055;-77
2024/02/16 07:08:54;;;;;;;0.70;0.70;;;;;;;8.89;62.52;97569.81;4960606;28;20086;-64
2024/02/16 07:11:21;;;;;;;0.70;0.70;;;;;;;7.97;61.69;97446.47;4975579;28;20063;-70
2024/02/16 07:13:48;;;;;;;0.60;0.60;;;;;;;8.12;61.67;97481.66;4961893;28;20117;-65
2024/02/16 07:16:15;;;;;;;0.70;0.70;;;;;;;8.47;60.68;97516.00;4961490;28;20063;-71
2024/02/16 07:18:42;;;;;;;0.70;0.70;;;;;;;9.18;60.30;97558.50;4961776;28;20109;-64
2024/02/16 07:21:09;;;;;;;0.80;0.80;;;;;;;8.28;58.60;97435.72;4963355;28;20212;-66
2024/02/16 07:23:37;;;;;;;0.80;0.80;;;;;;;9.49;58.47;97558.66;4961731;28;20058;-75
2024/02/16 07:26:04;;;;;;;0.70;0.70;;;;;;;8.48;58.15;97440.28;4963010;28;20059;-73
2024/02/16 07:28:33;;;;;;;0.80;0.80;;;;;;;8.89;57.99;97495.22;4962595;28;20138;-65
2024/02/16 07:31:00;;;;;;;0.70;0.70;;;;;;;9.11;57.67;97514.06;4962533;28;20086;-72
2024/02/16 07:33:28;;;;;;;0.80;0.80;;;;;;;9.78;57.86;97561.06;4962813;28;20240;-71
2024/02/16 07:35:55;;;;;;;0.70;0.70;;;;;;;9.60;58.19;97492.56;4962805;28;20090;-68
2024/02/16 07:38:23;;;;;;;0.80;0.80;;;;;;;10.45;56.62;97558.19;4963285;28;20055;-74
2024/02/16 07:40:50;;;;;;;0.80;0.80;;;;;;;10.73;55.09;97548.97;4979001;28;20066;-76
2024/02/16 07:43:18;;;;;;;0.80;0.80;;;;;;;10.94;54.18;97557.81;4961900;28;20126;-67
2024/02/16 07:45:45;;;;;;;0.80;0.80;;;;;;;10.91;53.05;97533.56;4960763;28;20043;-58
2024/02/16 07:48:12;;;;;;;0.80;0.80;;;;;;;11.35;52.24;97568.25;4968988;28;20047;-73
2024/02/16 07:50:40;;;;;;;0.90;0.90;;;;;;;11.17;52.61;97500.50;4966137;28;20051;-61
2024/02/16 07:53:07;;;;;;;0.93;0.93;;;;;;;11.71;51.30;97570.66;4963579;28;20054;-73
2024/02/16 07:55:33;;;;;;;1.00;1.00;;;;;;;11.70;51.22;97574.59;4964811;28;20515;-60
2024/02/16 07:58:00;;;;;;;0.80;0.80;;;;;;;11.24;52.04;97578.31;4949418;28;20059;-60
2024/02/16 08:00:28;;;;;;;0.90;0.90;;;;;;;11.72;51.89;97577.81;4947481;29;20066;-62
2024/02/16 08:02:55;;;;;;;0.90;0.90;;;;;;;11.72;51.25;97572.25;4947464;28;20107;-75
2024/02/16 08:05:23;;;;;;;0.90;0.90;;;;;;;11.72;51.01;97572.25;4945399;29;20439;-73
2024/02/16 08:07:50;;;;;;;0.90;0.90;;;;;;;11.60;50.85;97561.28;4946615;28;20464;-61
2024/02/16 08:10:24;;;;;;;0.90;0.90;;;;;;;11.72;49.61;97575.84;4946949;28;20059;-74
2024/02/16 08:12:52;;;;;;;0.90;0.90;;;;;;;11.51;49.17;97582.84;4935006;28;20446;-72
2024/02/16 08:15:23;;;;;;;0.82;0.82;;;;;;;10.94;49.76;97524.53;4951657;28;20055;-70
2024/02/16 08:17:51;;;;;;;0.88;0.88;;;;;;;12.11;48.74;97579.41;4956787;28;20719;-63
2024/02/16 08:20:20;;;;;;;0.90;0.90;;;;;;;11.43;49.78;97500.69;4965297;28;20082;-70
2024/02/16 08:22:48;;;;;;;0.80;0.80;;;;;;;12.10;48.63;97572.25;4965342;28;20055;-63
2024/02/16 08:25:14;;;;;;;0.95;0.95;;;;;;;11.26;48.27;97456.72;4965346;28;20149;-69
2024/02/16 08:27:41;;;;;;;0.90;0.90;;;;;;;12.21;47.76;97567.69;4965798;28;20427;-64
2024/02/16 08:30:08;;;;;;;1.00;1.00;;;;;;;11.93;47.83;97511.63;4964906;28;20063;-61
2024/02/16 08:32:36;;;;;;;0.90;0.90;;;;;;;12.05;49.19;97569.75;4965460;28;20046;-72
2024/02/16 08:35:03;;;;;;;0.90;0.90;;;;;;;11.92;47.90;97555.25;4965600;28;20485;-71
2024/02/16 08:37:30;;;;;;;1.00;1.00;;;;;;;10.84;48.24;97419.78;4965214;28;20529;-66
2024/02/16 08:39:57;;;;;;;0.90;0.90;;;;;;;10.73;49.38;97484.06;4964975;28;20129;-62
2024/02/16 08:42:24;;;;;;;0.82;0.82;;;;;;;10.54;49.04;97472.94;4967914;28;20050;-64
2024/02/16 08:44:51;;;;;;;0.80;0.80;;;;;;;11.11;49.20;97579.59;4964719;28;20061;-63
2024/02/16 08:47:19;;;;;;;0.90;0.90;;;;;;;10.78;49.21;97526.53;4964222;28;20051;-63
2024/02/16 08:49:46;;;;;;;0.80;0.80;;;;;;;11.13;50.01;97588.34;4963288;28;20082;-67
2024/02/16 08:52:14;;;;;;;0.90;0.90;;;;;;;10.88;49.82;97542.59;4963843;28;20322;-61
2024/02/16 08:54:42;;;;;;;0.90;0.90;;;;;;;11.30;49.23;97560.22;4964027;28;20051;-63
2024/02/16 08:57:10;;;;;;;0.80;0.80;;;;;;;11.58;48.91;97594.13;4962899;28;20051;-61
2024/02/16 08:59:37;;;;;;;0.90;0.90;;;;;;;10.26;48.79;97416.88;4963830;28;20494;-69
2024/02/16 09:02:04;;;;;;;0.90;0.90;;;;;;;11.89;48.02;97582.91;4966223;28;20109;-67
2024/02/16 09:04:31;;;;;;;1.00;1.00;;;;;;;11.56;48.06;97574.25;4964603;28;20502;-61
2024/02/16 09:06:59;;;;;;;0.90;0.90;;;;;;;11.28;49.05;97562.53;4976880;28;20050;-71
2024/02/16 09:09:28;;;;;;;0.90;0.90;;;;;;;11.35;48.88;97590.44;4965045;28;20510;-65
2024/02/16 09:11:55;;;;;;;0.80;0.80;;;;;;;10.54;49.43;97549.69;4963629;28;20573;-66
2024/02/16 09:14:22;;;;;;;0.80;0.80;;;;;;;10.37;49.54;97506.53;4963474;28;20065;-64
2024/02/16 09:16:52;;;;;;;0.80;0.80;;;;;;;11.01;48.64;97505.28;4964340;28;20051;-70
2024/02/16 09:19:19;;;;;;;0.90;0.90;;;;;;;11.94;48.10;97552.09;4959374;28;20070;-64
2024/02/16 09:21:47;;;;;;;0.90;0.90;;;;;;;11.71;47.71;97542.91;4964552;28;20050;-61
2024/02/16 09:24:18;;;;;;;0.90;0.90;;;;;;;11.94;47.59;97596.50;4963526;28;20059;-62
2024/02/16 09:26:46;;;;;;;0.90;0.90;;;;;;;12.32;46.88;97590.94;4963817;28;20138;-62
2024/02/16 09:29:16;;;;;;;0.93;0.93;;;;;;;12.29;46.59;97519.44;4965016;28;20584;-71
2024/02/16 09:31:43;;;;;;;1.00;1.00;;;;;;;12.45;46.36;97550.69;4964580;28;20081;-72
2024/02/16 09:34:10;;;;;;;1.00;1.00;;;;;;;12.16;46.38;97587.44;4965432;28;20059;-69
2024/02/16 09:36:37;;;;;;;1.00;1.00;;;;;;;12.46;46.18;97580.06;4964495;28;20059;-63
2024/02/16 09:39:05;;;;;;;1.00;1.00;;;;;;;12.93;46.27;97577.72;4964711;28;20051;-68
2024/02/16 09:41:36;;;;;;;0.90;0.90;;;;;;;12.80;46.21;97584.66;4964738;28;20133;-68
2024/02/16 09:44:03;;;;;;;1.00;1.00;;;;;;;12.63;46.35;97554.56;4964492;28;20411;-63
2024/02/16 09:46:33;;;;;;;1.00;1.00;;;;;;;12.36;46.90;97552.09;4963816;28;20055;-64
2024/02/16 09:49:04;;;;;;;1.00;1.00;;;;;;;12.71;46.29;97570.19;4964806;28;20457;-65
2024/02/16 09:51:35;;;;;;;1.00;1.00;;;;;;;12.03;45.98;97427.72;4962524;28;20071;-67
2024/02/16 09:54:03;;;;;;;1.00;1.00;;;;;;;12.36;45.81;97519.56;4964187;28;20062;-67
2024/02/16 09:56:29;;;;;;;1.00;1.00;;;;;;;12.72;46.06;97577.38;4963797;28;20089;-63
2024/02/16 09:58:57;;;;;;;1.00;1.00;;;;;;;12.25;46.31;97585.22;4964568;28;20053;-65
2024/02/16 10:01:26;;;;;;;0.90;0.90;;;;;;;12.15;45.89;97469.19;4964490;28;20054;-61
2024/02/16 10:03:53;;;;;;;1.00;1.00;;;;;;;12.51;46.56;97559.50;4964203;28;20058;-62
2024/02/16 10:06:22;;;;;;;1.08;1.08;;;;;;;12.61;45.88;97575.56;4964076;28;20073;-66
2024/02/16 10:09:00;;;;;;;0.90;0.90;;;;;;;12.47;46.30;97556.66;4963527;28;20050;-65
2024/02/16 10:11:30;;;;;;;0.90;0.90;;;;;;;12.67;47.06;97563.78;4963857;28;20122;-63
2024/02/16 10:13:59;;;;;;;1.00;1.00;;;;;;;12.28;46.54;97506.75;4963092;28;20101;-63
2024/02/16 10:16:29;;;;;;;0.90;0.90;;;;;;;12.92;46.23;97542.75;4964140;28;20421;-63
2024/02/16 10:19:03;;;;;;;1.00;1.00;;;;;;;12.86;45.82;97549.81;4962297;28;20061;-61
2024/02/16 10:21:30;;;;;;;0.95;0.95;;;;;;;13.11;45.77;97556.59;4963287;28;20050;-61
2024/02/16 10:24:02;;;;;;;1.00;1.00;;;;;;;12.99;45.15;97548.41;4962537;28;20144;-63
2024/02/16 10:26:29;;;;;;;1.00;1.00;;;;;;;12.22;46.22;97485.97;4961723;28;20054;-65
2024/02/16 10:28:57;;;;;;;1.05;1.05;;;;;;;13.19;45.45;97544.38;4987293;28;20064;-62
2024/02/16 10:31:29;;;;;;;0.90;0.90;;;;;;;11.95;45.68;97475.94;4981574;28;20051;-61
2024/02/16 10:33:58;;;;;;;0.95;0.95;;;;;;;12.16;46.24;97526.34;4982533;28;20125;-62
2024/02/16 10:36:28;;;;;;;0.98;0.98;;;;;;;12.25;46.94;97546.34;4981106;28;20437;-66
2024/02/16 10:38:58;;;;;;;0.90;0.90;;;;;;;12.06;46.72;97549.16;4982963;28;20116;-62
2024/02/16 10:41:28;;;;;;;0.98;0.98;;;;;;;11.86;46.71;97528.13;4981284;28;20129;-63
2024/02/16 10:43:56;;;;;;;0.80;0.80;;;;;;;11.62;47.31;97518.13;4982692;28;20457;-66
2024/02/16 10:46:24;;;;;;;0.90;0.90;;;;;;;11.74;47.21;97497.78;4982914;28;20050;-61
2024/02/16 10:48:51;;;;;;;1.00;1.00;;;;;;;12.15;46.53;97492.19;4981628;28;20050;-66
2024/02/16 10:51:34;;;;;;;1.00;1.00;;;;;;;12.85;47.10;97542.63;4982601;28;20448;-61
2024/02/16 10:54:01;;;;;;;0.98;0.98;;;;;;;12.68;46.24;97540.34;4978950;28;20124;-66
2024/02/16 10:56:40;;;;;;;0.93;0.93;;;;;;;13.13;45.36;97545.09;4973703;28;20125;-61
2024/02/16 10:59:10;;;;;;;1.00;1.00;;;;;;;12.52;45.90;97484.09;4966792;28;20057;-62
2024/02/16 11:01:42;;;;;;;1.00;1.00;;;;;;;13.01;45.39;97532.19;4963958;28;20059;-62
2024/02/16 11:04:16;;;;;;;1.10;1.10;;;;;;;12.99;45.78;97542.84;4978634;28;20612;-62
2024/02/16 11:06:56;;;;;;;1.10;1.10;;;;;;;12.25;44.69;97379.69;4969294;28;20051;-67
2024/02/16 11:09:30;;;;;;;1.00;1.00;;;;;;;13.37;44.94;97591.97;4980464;28;20085;-68
2024/02/16 11:12:03;;;;;;;1.10;1.10;;;;;;;13.18;45.14;97528.84;4982479;28;20062;-67
2024/02/16 11:14:46;;;;;;;1.00;1.00;;;;;;;12.39;46.49;97529.94;4982341;28;20050;-67
2024/02/16 11:17:20;;;;;;;0.97;0.97;;;;;;;12.01;46.33;97480.06;4980229;28;20089;-66
2024/02/16 11:19:48;;;;;;;0.95;0.95;;;;;;;12.27;46.38;97474.56;4974520;28;20428;-66
2024/02/16 11:22:17;;;;;;;0.90;0.90;;;;;;;12.27;46.10;97509.84;4971496;28;20129;-69
2024/02/16 11:24:54;;;;;;;0.93;0.93;;;;;;;12.44;46.03;97515.72;4986268;28;20102;-66
2024/02/16 11:27:27;;;;;;;1.00;1.00;;;;;;;11.78;46.42;97465.31;4982134;28;21567;-66
2024/02/16 11:29:55;;;;;;;0.90;0.90;;;;;;;12.65;46.22;97532.78;4986396;28;20054;-69
2024/02/16 11:32:22;;;;;;;0.98;0.98;;;;;;;12.64;45.48;97530.38;4986838;28;20068;-68
2024/02/16 11:34:49;;;;;;;0.90;0.90;;;;;;;11.93;46.04;97481.88;4986593;28;20057;-68
2024/02/16 11:37:16;;;;;;;1.00;1.00;;;;;;;11.97;46.84;97531.91;4988397;28;20058;-66
2024/02/16 11:39:46;;;;;;;0.93;0.93;;;;;;;11.95;46.61;97537.03;4985969;28;20138;-68
2024/02/16 11:42:18;;;;;;;0.90;0.90;;;;;;;8.56;47.00;97011.44;4986909;28;20050;-70